createdAt,value
2023-04-13T00:01:28.832Z,59.73
2023-04-13T00:04:03.188Z,59.61
2023-04-13T00:06:32.126Z,59.03
2023-04-13T00:09:01.030Z,59.25
2023-04-13T00:11:29.545Z,58.78
2023-04-13T00:13:59.455Z,59.41
2023-04-13T00:16:29.721Z,59.49
2023-04-13T00:18:58.093Z,58.76
2023-04-13T00:21:26.325Z,59.29
2023-04-13T00:23:54.552Z,58.99
2023-04-13T00:26:25.173Z,58.44
2023-04-13T00:28:53.415Z,58.67
2023-04-13T00:31:23.438Z,58.83
2023-04-13T00:33:51.745Z,59.38
2023-04-13T00:36:19.985Z,60.24
2023-04-13T00:38:50.621Z,60.58
2023-04-13T00:41:19.291Z,60.25
2023-04-13T00:43:49.518Z,60.37
2023-04-13T00:46:19.144Z,61.51
2023-04-13T00:48:49.868Z,61.15
2023-04-13T00:51:19.148Z,61.77
2023-04-13T00:53:49.674Z,61.10
2023-04-13T00:56:18.685Z,61.74
2023-04-13T00:58:46.931Z,60.74
2023-04-13T01:01:15.170Z,61.30
2023-04-13T01:03:43.694Z,61.19
2023-04-13T01:06:19.166Z,60.74
2023-04-13T01:08:51.364Z,60.86
2023-04-13T01:11:26.837Z,60.49
2023-04-13T01:14:01.330Z,60.34
2023-04-13T01:16:34.809Z,59.74
2023-04-13T01:19:07.478Z,60.47
2023-04-13T01:21:39.091Z,59.70
2023-04-13T01:24:19.682Z,59.00
2023-04-13T01:26:57.300Z,59.54
2023-04-13T01:29:28.489Z,59.51
2023-04-13T01:31:57.753Z,58.85
2023-04-13T01:34:26.687Z,58.71
2023-04-13T01:36:55.698Z,58.61
2023-04-13T01:39:32.012Z,58.89
2023-04-13T01:42:10.340Z,58.29
2023-04-13T01:44:41.313Z,58.74
2023-04-13T01:47:16.422Z,58.93
2023-04-13T01:50:03.903Z,59.23
2023-04-13T01:53:12.763Z,59.29
2023-04-13T01:55:45.669Z,59.50
2023-04-13T01:58:17.095Z,58.65
2023-04-13T02:00:54.551Z,58.00
2023-04-13T02:03:23.625Z,58.06
2023-04-13T02:05:52.081Z,58.06
2023-04-13T02:08:20.757Z,57.96
2023-04-13T02:10:49.334Z,58.19
2023-04-13T02:13:18.031Z,58.13
2023-04-13T02:15:46.593Z,58.22
2023-04-13T02:18:16.200Z,57.68
2023-04-13T02:20:44.556Z,57.42
2023-04-13T02:23:14.970Z,57.79
2023-04-13T02:25:47.936Z,57.50
2023-04-13T02:28:17.873Z,57.64
2023-04-13T02:30:48.138Z,57.55
2023-04-13T02:33:19.233Z,57.51
2023-04-13T02:35:48.857Z,57.70
2023-04-13T02:38:18.394Z,57.80
2023-04-13T02:40:55.555Z,57.71
2023-04-13T02:43:23.846Z,57.58
2023-04-13T02:45:52.855Z,57.89
2023-04-13T02:48:25.733Z,58.44
2023-04-13T02:50:55.934Z,58.30
2023-04-13T02:53:28.412Z,58.43
2023-04-13T02:56:02.281Z,58.45
2023-04-13T02:58:31.877Z,58.23
2023-04-13T03:01:04.732Z,58.20
2023-04-13T03:03:35.293Z,58.26
2023-04-13T03:06:03.628Z,58.01
2023-04-13T03:08:42.684Z,58.25
2023-04-13T03:11:23.914Z,58.57
2023-04-13T03:14:01.795Z,58.26
2023-04-13T03:16:33.152Z,58.62
2023-04-13T03:19:03.466Z,58.75
2023-04-13T03:21:34.443Z,58.74
2023-04-13T03:24:12.460Z,58.54
2023-04-13T03:26:41.322Z,58.26
2023-04-13T03:29:15.386Z,58.36
2023-04-13T03:31:46.695Z,58.58
2023-04-13T03:34:16.598Z,58.74
2023-04-13T03:36:47.608Z,58.61
2023-04-13T03:39:19.992Z,58.87
2023-04-13T03:41:48.509Z,59.00
2023-04-13T03:44:18.183Z,58.67
2023-04-13T03:46:46.554Z,58.43
2023-04-13T03:49:31.462Z,58.26
2023-04-13T03:52:00.315Z,58.26
2023-04-13T03:54:33.522Z,58.42
2023-04-13T03:57:04.564Z,58.38
2023-04-13T03:59:34.418Z,58.22
2023-04-13T04:02:04.004Z,58.55
2023-04-13T04:04:36.292Z,59.16
2023-04-13T04:07:05.104Z,58.74
2023-04-13T04:09:33.508Z,58.54
2023-04-13T04:12:01.741Z,58.36
2023-04-13T04:14:41.102Z,58.71
2023-04-13T04:17:16.058Z,58.65
2023-04-13T04:19:46.678Z,58.54
2023-04-13T04:22:16.826Z,58.36
2023-04-13T04:24:45.351Z,58.13
2023-04-13T04:27:14.516Z,58.53
2023-04-13T04:29:49.756Z,58.24
2023-04-13T04:32:33.866Z,57.97
2023-04-13T04:35:06.855Z,58.13
2023-04-13T04:37:42.157Z,58.15
2023-04-13T04:40:15.231Z,58.47
2023-04-13T04:42:44.135Z,58.05
2023-04-13T04:45:28.168Z,58.05
2023-04-13T04:47:59.327Z,58.11
2023-04-13T04:50:30.440Z,57.88
2023-04-13T04:53:10.012Z,58.05
2023-04-13T04:55:38.284Z,58.22
2023-04-13T04:58:06.953Z,58.51
2023-04-13T05:00:36.948Z,58.31
2023-04-13T05:03:14.727Z,58.14
2023-04-13T05:05:49.632Z,58.19
2023-04-13T05:08:24.425Z,58.38
2023-04-13T05:10:52.834Z,58.38
2023-04-13T05:13:21.759Z,58.41
2023-04-13T05:16:05.736Z,58.28
2023-04-13T05:18:45.292Z,58.04
2023-04-13T05:21:22.622Z,58.01
2023-04-13T05:23:57.694Z,57.82
2023-04-13T05:26:27.280Z,57.75
2023-04-13T05:28:55.810Z,57.58
2023-04-13T05:31:25.785Z,57.55
2023-04-13T05:33:54.109Z,57.65
2023-04-13T05:36:23.750Z,57.75
2023-04-13T05:38:52.088Z,57.51
2023-04-13T05:41:25.224Z,57.45
2023-04-13T05:43:53.473Z,57.46
2023-04-13T05:46:22.592Z,57.69
2023-04-13T05:48:52.051Z,57.88
2023-04-13T05:51:20.719Z,57.56
2023-04-13T05:53:50.382Z,57.84
2023-04-13T05:56:18.787Z,57.90
2023-04-13T05:58:47.374Z,57.76
2023-04-13T06:01:26.389Z,57.58
2023-04-13T06:03:56.061Z,57.63
2023-04-13T06:06:25.381Z,58.22
2023-04-13T06:08:55.226Z,58.97
2023-04-13T06:11:25.127Z,58.32
2023-04-13T06:13:53.455Z,58.80
2023-04-13T06:16:23.275Z,58.77
2023-04-13T06:18:52.262Z,58.77
2023-04-13T06:21:20.551Z,58.85
2023-04-13T06:23:50.617Z,59.00
2023-04-13T06:26:30.200Z,58.97
2023-04-13T06:28:58.867Z,59.77
2023-04-13T06:31:28.490Z,60.62
2023-04-13T06:34:00.415Z,60.82
2023-04-13T06:36:33.663Z,59.93
2023-04-13T06:39:03.992Z,60.23
2023-04-13T06:41:35.572Z,61.60
2023-04-13T06:44:27.204Z,60.51
2023-04-13T06:46:59.854Z,60.91
2023-04-13T06:49:33.761Z,61.15
2023-04-13T06:52:03.423Z,61.68
2023-04-13T06:54:31.868Z,61.10
2023-04-13T06:57:08.246Z,60.45
2023-04-13T06:59:37.668Z,61.13
2023-04-13T07:02:06.432Z,61.78
2023-04-13T07:04:34.894Z,62.52
2023-04-13T07:07:05.031Z,61.68
2023-04-13T07:09:33.664Z,61.44
2023-04-13T07:12:05.040Z,61.78
2023-04-13T07:14:36.067Z,61.74
2023-04-13T07:17:05.847Z,61.96
2023-04-13T07:19:35.759Z,61.91
2023-04-13T07:22:04.358Z,62.27
2023-04-13T07:24:36.034Z,62.80
2023-04-13T07:27:09.499Z,63.81
2023-04-13T07:29:39.373Z,63.63
2023-04-13T07:32:11.770Z,63.96
2023-04-13T07:34:41.203Z,63.36
2023-04-13T07:37:10.100Z,64.64
2023-04-13T07:39:38.434Z,62.51
2023-04-13T07:42:07.184Z,64.37
2023-04-13T07:44:42.415Z,65.00
2023-04-13T07:47:14.134Z,63.71
2023-04-13T07:49:44.781Z,64.99
2023-04-13T07:52:17.052Z,64.36
2023-04-13T07:54:45.674Z,64.63
2023-04-13T07:57:14.097Z,63.99
2023-04-13T07:59:51.892Z,64.34
2023-04-13T08:02:22.565Z,65.82
2023-04-13T08:04:53.783Z,66.07
2023-04-13T08:07:27.333Z,65.14
2023-04-13T08:09:55.725Z,65.72
2023-04-13T08:12:24.202Z,65.70
2023-04-13T08:14:55.538Z,64.82
2023-04-13T08:17:23.973Z,67.50
2023-04-13T08:19:52.613Z,65.33
2023-04-13T08:22:21.393Z,66.16
2023-04-13T08:24:49.647Z,65.98
2023-04-13T08:27:17.933Z,64.99
2023-04-13T08:29:47.036Z,65.14
2023-04-13T08:32:17.757Z,67.32
2023-04-13T08:34:46.177Z,65.22
2023-04-13T08:37:17.452Z,68.23
2023-04-13T08:39:48.374Z,69.70
2023-04-13T08:42:22.444Z,66.52
2023-04-13T08:44:53.513Z,68.46
2023-04-13T08:47:24.402Z,66.04
2023-04-13T08:49:54.357Z,66.20
2023-04-13T08:52:32.467Z,66.13
2023-04-13T08:55:02.394Z,69.20
2023-04-13T08:57:33.752Z,67.17
2023-04-13T09:00:16.628Z,67.78
2023-04-13T09:03:03.066Z,64.94
2023-04-13T09:05:39.486Z,66.56
2023-04-13T09:08:08.636Z,65.75
2023-04-13T09:10:41.168Z,65.92
2023-04-13T09:13:10.547Z,68.35
2023-04-13T09:15:38.972Z,66.46
2023-04-13T09:18:28.020Z,66.40
2023-04-13T09:21:03.219Z,65.39
2023-04-13T09:23:31.670Z,65.98
2023-04-13T09:26:07.604Z,66.23
2023-04-13T09:28:46.251Z,66.27
2023-04-13T09:31:15.816Z,67.38
2023-04-13T09:33:49.885Z,67.23
2023-04-13T09:36:19.642Z,67.36
2023-04-13T09:38:53.343Z,64.22
2023-04-13T09:41:32.809Z,66.72
2023-04-13T09:44:01.511Z,67.30
2023-04-13T09:46:30.156Z,67.37
2023-04-13T09:49:02.802Z,68.62
2023-04-13T09:51:38.506Z,68.54
2023-04-13T09:54:08.043Z,68.19
2023-04-13T09:56:48.263Z,66.50
2023-04-13T09:59:18.966Z,67.52
2023-04-13T10:01:47.566Z,69.04
2023-04-13T10:04:18.252Z,66.91
2023-04-13T10:06:46.948Z,69.87
2023-04-13T10:09:15.792Z,67.75
2023-04-13T10:11:47.656Z,69.03
2023-04-13T10:14:19.133Z,69.37
2023-04-13T10:17:08.436Z,67.07
2023-04-13T10:19:43.186Z,67.73
2023-04-13T10:22:12.648Z,68.59
2023-04-13T10:24:41.478Z,70.27
2023-04-13T10:27:14.827Z,68.03
2023-04-13T10:29:43.153Z,67.34
2023-04-13T10:32:22.002Z,67.33
2023-04-13T10:34:52.872Z,68.83
2023-04-13T10:37:23.495Z,68.75
2023-04-13T10:40:05.755Z,68.48
2023-04-13T10:42:51.885Z,68.34
2023-04-13T10:45:24.062Z,68.17
2023-04-13T10:47:52.975Z,68.17
2023-04-13T10:50:24.264Z,68.04
2023-04-13T10:53:00.167Z,110.66
2023-04-13T10:55:28.675Z,113.82
2023-04-13T10:57:57.476Z,115.47
2023-04-13T11:00:38.425Z,117.21
2023-04-13T11:03:15.268Z,118.11
2023-04-13T11:05:46.508Z,-4.01
2023-04-13T11:08:20.701Z,-5.52
2023-04-13T11:10:53.635Z,-1.96
2023-04-13T11:13:22.457Z,-3.47
2023-04-13T11:15:51.857Z,118.21
2023-04-13T11:18:26.780Z,-5.81
2023-04-13T11:20:56.586Z,-5.28
2023-04-13T11:23:25.457Z,114.53
2023-04-13T11:25:55.180Z,116.73
2023-04-13T11:28:24.194Z,116.70
2023-04-13T11:30:56.473Z,111.58
2023-04-13T11:33:30.033Z,110.48
2023-04-13T11:36:01.188Z,110.65
2023-04-13T11:38:29.696Z,107.16
2023-04-13T11:41:14.971Z,109.25
2023-04-13T11:43:48.394Z,110.68
2023-04-13T11:46:25.200Z,110.33
2023-04-13T11:48:54.354Z,111.46
2023-04-13T11:51:25.629Z,107.48
2023-04-13T11:53:54.623Z,109.97
2023-04-13T11:56:23.857Z,106.46
2023-04-13T11:58:53.319Z,105.24
2023-04-13T12:01:26.152Z,105.30
2023-04-13T12:04:13.982Z,100.92
2023-04-13T12:06:47.756Z,100.43
2023-04-13T12:09:17.650Z,100.88
2023-04-13T12:11:50.269Z,99.91
2023-04-13T12:19:27.581Z,99.15
2023-04-13T12:21:58.399Z,95.67
2023-04-13T12:24:37.860Z,97.30
2023-04-13T12:29:41.083Z,96.33
2023-04-13T12:32:14.700Z,95.35
2023-04-13T12:34:43.718Z,93.11
2023-04-13T12:37:13.382Z,93.08
2023-04-13T12:39:43.498Z,91.31
2023-04-13T12:42:12.246Z,88.25
2023-04-13T12:44:40.458Z,92.24
2023-04-13T12:47:08.978Z,89.30
2023-04-13T12:49:37.275Z,88.65
2023-04-13T12:52:05.705Z,90.50
2023-04-13T12:54:35.524Z,91.39
2023-04-13T12:57:03.822Z,88.22
2023-04-13T12:59:32.047Z,86.82
2023-04-13T13:02:00.375Z,89.60
2023-04-13T13:04:30.756Z,85.34
2023-04-13T13:07:00.534Z,90.23
2023-04-13T13:09:29.437Z,94.90
2023-04-13T13:11:59.113Z,88.86
2023-04-13T13:14:27.501Z,86.70
2023-04-13T13:16:55.910Z,88.64
2023-04-13T13:19:24.170Z,85.60
2023-04-13T13:21:52.403Z,86.80
2023-04-13T13:24:20.686Z,87.57
2023-04-13T13:27:17.058Z,85.32
2023-04-13T13:29:39.695Z,85.99
2023-04-13T13:32:08.095Z,87.15
2023-04-13T13:34:36.323Z,85.94
2023-04-13T13:37:05.576Z,86.58
2023-04-13T13:39:33.842Z,87.51
2023-04-13T13:42:03.495Z,88.07
2023-04-13T13:44:32.673Z,84.29
2023-04-13T13:47:04.198Z,83.32
2023-04-13T13:49:32.943Z,87.86
2023-04-13T13:52:14.972Z,85.96
2023-04-13T13:54:49.922Z,83.56
2023-04-13T13:57:18.373Z,84.79
2023-04-13T13:59:48.154Z,87.23
2023-04-13T14:02:20.494Z,87.45
2023-04-13T14:04:48.791Z,85.88
2023-04-13T14:07:17.057Z,87.34
2023-04-13T14:09:46.047Z,88.07
2023-04-13T14:12:14.272Z,85.96
2023-04-13T14:14:42.539Z,86.58
2023-04-13T14:17:10.879Z,88.15
2023-04-13T14:19:40.454Z,86.19
2023-04-13T14:22:08.785Z,88.67
2023-04-13T14:24:37.029Z,86.64
2023-04-13T14:27:05.297Z,83.20
2023-04-13T14:29:33.623Z,84.52
2023-04-13T14:32:01.958Z,84.44
2023-04-13T14:34:30.446Z,85.98
2023-04-13T14:37:00.610Z,85.36
2023-04-13T14:39:28.871Z,85.75
2023-04-13T14:41:57.073Z,86.23
2023-04-13T14:44:25.513Z,83.84
2023-04-13T14:46:53.773Z,82.06
2023-04-13T14:49:22.003Z,80.84
2023-04-13T14:51:50.244Z,80.05
2023-04-13T14:54:20.166Z,77.53
2023-04-13T14:56:48.675Z,76.75
2023-04-13T14:59:17.129Z,77.10
2023-04-13T15:01:45.420Z,73.40
2023-04-13T15:04:13.902Z,73.46
2023-04-13T15:06:42.182Z,72.23
2023-04-13T15:09:12.981Z,72.52
2023-04-13T15:11:42.698Z,76.08
2023-04-13T15:14:11.394Z,76.23
2023-04-13T15:16:39.653Z,79.85
2023-04-13T15:19:08.155Z,76.53
2023-04-13T15:21:36.500Z,74.32
2023-04-13T15:24:04.969Z,72.19
2023-04-13T15:26:39.542Z,68.55
2023-04-13T15:29:10.506Z,68.55
2023-04-13T15:31:39.839Z,71.81
2023-04-13T15:34:08.981Z,74.60
2023-04-13T15:36:37.424Z,74.59
2023-04-13T15:39:06.278Z,73.61
2023-04-13T15:41:34.582Z,75.74
2023-04-13T15:44:03.418Z,77.24
2023-04-13T15:46:33.759Z,79.41
2023-04-13T15:49:02.445Z,80.37
2023-04-13T15:51:32.011Z,78.19
2023-04-13T15:54:00.371Z,79.51
2023-04-13T15:56:29.427Z,77.42
2023-04-13T15:58:58.147Z,76.45
2023-04-13T16:01:27.513Z,74.29
2023-04-13T16:03:57.718Z,75.15
2023-04-13T16:06:26.226Z,76.39
2023-04-13T16:08:56.960Z,76.73
2023-04-13T16:11:28.429Z,79.17
2023-04-13T16:13:58.732Z,80.86
2023-04-13T16:16:27.607Z,80.17
2023-04-13T16:18:57.812Z,80.62
2023-04-13T16:21:28.268Z,81.16
2023-04-13T16:23:57.133Z,81.36
2023-04-13T16:26:25.388Z,83.51
2023-04-13T16:28:53.635Z,83.11
2023-04-13T16:31:21.929Z,81.90
2023-04-13T16:33:50.213Z,80.42
2023-04-13T16:36:19.835Z,79.85
2023-04-13T16:38:48.051Z,80.04
2023-04-13T16:41:16.880Z,79.05
2023-04-13T16:43:45.152Z,78.60
2023-04-13T16:46:14.332Z,76.03
2023-04-13T16:48:42.975Z,76.86
2023-04-13T16:51:11.351Z,78.89
2023-04-13T16:53:44.060Z,77.02
2023-04-13T16:56:14.685Z,78.65
2023-04-13T16:58:44.332Z,78.57
2023-04-13T17:01:13.645Z,80.60
2023-04-13T17:03:42.058Z,85.37
2023-04-13T17:06:10.516Z,86.59
2023-04-13T17:08:40.142Z,88.56
2023-04-13T17:11:08.540Z,90.30
2023-04-13T17:13:36.991Z,90.44
2023-04-13T17:16:05.608Z,92.30
2023-04-13T17:18:33.900Z,93.82
2023-04-13T17:21:02.189Z,97.20
2023-04-13T17:23:30.504Z,97.58
2023-04-13T17:26:00.136Z,97.78
2023-04-13T17:28:28.451Z,96.22
2023-04-13T17:30:56.661Z,99.00
2023-04-13T17:33:27.972Z,101.56
2023-04-13T17:35:56.447Z,105.64
2023-04-13T17:38:24.691Z,101.92
2023-04-13T17:40:52.921Z,103.24
2023-04-13T17:43:22.661Z,102.39
2023-04-13T17:45:51.030Z,104.04
2023-04-13T17:48:19.304Z,102.37
2023-04-13T17:50:47.622Z,104.31
2023-04-13T17:53:15.880Z,103.97
2023-04-13T17:55:44.116Z,104.40
2023-04-13T17:58:12.811Z,103.97
2023-04-13T18:00:42.394Z,104.79
2023-04-13T18:03:11.695Z,104.89
2023-04-13T18:05:44.410Z,104.30
2023-04-13T18:08:12.669Z,104.48
2023-04-13T18:10:40.869Z,105.42
2023-04-13T18:13:09.146Z,105.00
2023-04-13T18:15:37.417Z,103.84
2023-04-13T18:18:07.247Z,104.79
2023-04-13T18:20:35.498Z,103.56
2023-04-13T18:23:03.750Z,105.10
2023-04-13T18:25:32.657Z,104.64
2023-04-13T18:28:00.938Z,104.52
2023-04-13T18:30:29.307Z,103.90
2023-04-13T18:32:57.633Z,104.08
2023-04-13T18:35:27.589Z,102.47
2023-04-13T18:37:55.866Z,97.55
2023-04-13T18:40:24.337Z,98.75
2023-04-13T18:42:52.869Z,98.25
2023-04-13T18:45:21.308Z,99.80
2023-04-13T18:47:49.631Z,98.40
2023-04-13T18:50:17.878Z,100.92
2023-04-13T18:52:47.532Z,102.16
2023-04-13T18:55:16.483Z,101.63
2023-04-13T18:57:44.758Z,106.97
2023-04-13T19:00:14.913Z,104.48
2023-04-13T19:02:46.435Z,107.89
2023-04-13T19:05:15.403Z,102.27
2023-04-13T19:07:45.748Z,102.96
2023-04-13T19:10:15.856Z,104.86
2023-04-13T19:12:44.105Z,105.72
2023-04-13T19:15:12.818Z,106.72
2023-04-13T19:17:41.868Z,107.09
2023-04-13T19:20:11.084Z,108.75
2023-04-13T19:22:39.375Z,106.15
2023-04-13T19:25:14.133Z,107.91
2023-04-13T19:27:44.665Z,105.44
2023-04-13T19:30:13.836Z,105.67
2023-04-13T19:32:43.977Z,105.37
2023-04-13T19:35:12.949Z,106.40
2023-04-13T19:37:46.793Z,105.11
2023-04-13T19:40:15.437Z,103.99
2023-04-13T19:42:47.122Z,103.29
2023-04-13T19:45:16.598Z,103.96
2023-04-13T19:47:45.110Z,102.89
2023-04-13T19:50:15.412Z,102.47
2023-04-13T19:52:47.099Z,103.18
2023-04-13T19:55:15.544Z,102.11
2023-04-13T19:57:45.209Z,101.32
2023-04-13T20:00:22.421Z,99.77
2023-04-13T20:02:53.163Z,99.23
2023-04-13T20:05:22.499Z,102.15
2023-04-13T20:07:50.794Z,103.27
2023-04-13T20:10:19.121Z,100.19
2023-04-13T20:12:48.916Z,100.14
2023-04-13T20:15:17.226Z,99.35
2023-04-13T20:17:47.848Z,97.33
2023-04-13T20:20:16.626Z,97.05
2023-04-13T20:22:44.860Z,97.76
2023-04-13T20:25:13.347Z,97.36
2023-04-13T20:27:42.209Z,93.09
2023-04-13T20:30:13.015Z,97.02
2023-04-13T20:32:41.411Z,96.22
2023-04-13T20:35:10.917Z,94.43
2023-04-13T20:37:39.180Z,97.13
2023-04-13T20:40:11.163Z,97.83
2023-04-13T20:42:42.668Z,95.87
2023-04-13T20:45:14.938Z,94.07
2023-04-13T20:47:43.557Z,93.79
2023-04-13T20:50:13.310Z,93.34
2023-04-13T20:52:42.735Z,92.57
2023-04-13T20:55:11.704Z,93.17
2023-04-13T20:57:42.162Z,91.39
2023-04-13T21:00:15.485Z,91.27
2023-04-13T21:02:44.619Z,91.28
2023-04-13T21:05:13.003Z,88.77
2023-04-13T21:07:42.074Z,89.94
2023-04-13T21:10:12.153Z,89.04
2023-04-13T21:12:40.472Z,88.60
2023-04-13T21:15:10.119Z,86.04
2023-04-13T21:17:39.919Z,85.77
2023-04-13T21:20:09.793Z,86.58
2023-04-13T21:22:38.399Z,83.78
2023-04-13T21:25:07.502Z,88.12
2023-04-13T21:27:35.721Z,87.28
2023-04-13T21:30:04.339Z,85.77
2023-04-13T21:32:32.785Z,84.27
2023-04-13T21:35:02.773Z,85.27
2023-04-13T21:37:31.209Z,84.20
2023-04-13T21:39:59.594Z,83.60
2023-04-13T21:42:27.861Z,83.00
2023-04-13T21:44:57.132Z,84.10
2023-04-13T21:47:25.522Z,84.49
2023-04-13T21:49:53.819Z,85.96
2023-04-13T21:52:23.447Z,83.97
2023-04-13T21:54:51.924Z,84.71
2023-04-13T21:57:20.317Z,82.95
2023-04-13T21:59:48.616Z,84.33
2023-04-13T22:02:17.040Z,84.11
2023-04-13T22:04:45.381Z,83.17
2023-04-13T22:07:13.694Z,81.69
2023-04-13T22:09:43.379Z,82.79
2023-04-13T22:12:11.823Z,84.32
2023-04-13T22:14:40.177Z,83.02
2023-04-13T22:17:08.490Z,81.52
2023-04-13T22:19:36.736Z,82.86
2023-04-13T22:22:04.996Z,83.05
2023-04-13T22:24:33.307Z,82.62
2023-04-13T22:27:04.688Z,84.80
2023-04-13T22:29:33.105Z,84.93
2023-04-13T22:32:01.654Z,84.59
2023-04-13T22:34:29.873Z,85.68
2023-04-13T22:36:58.066Z,85.39
2023-04-13T22:39:26.590Z,85.22
2023-04-13T22:41:54.943Z,85.25
2023-04-13T22:44:24.688Z,84.79
2023-04-13T22:46:55.443Z,84.49
2023-04-13T22:49:24.047Z,85.11
2023-04-13T22:51:52.319Z,85.42
2023-04-13T22:54:20.642Z,83.73
2023-04-13T22:56:48.871Z,82.65
2023-04-13T22:59:17.338Z,83.61
2023-04-13T23:01:47.338Z,82.78
2023-04-13T23:04:16.422Z,83.78
2023-04-13T23:06:44.748Z,83.39
2023-04-13T23:09:12.984Z,82.51
2023-04-13T23:11:41.281Z,82.36
2023-04-13T23:14:09.805Z,81.39
2023-04-13T23:16:38.223Z,81.46
2023-04-13T23:19:07.942Z,82.40
2023-04-13T23:21:36.163Z,83.16
2023-04-13T23:24:04.543Z,83.26
2023-04-13T23:26:32.804Z,83.11
2023-04-13T23:29:01.608Z,81.47
2023-04-13T23:31:30.620Z,81.00
2023-04-13T23:33:58.882Z,81.52
2023-04-13T23:36:28.586Z,80.93
2023-04-13T23:38:56.963Z,80.94
2023-04-13T23:41:25.222Z,81.14
2023-04-13T23:43:53.645Z,80.68
2023-04-13T23:46:22.576Z,79.45
2023-04-13T23:48:51.165Z,80.38
2023-04-13T23:51:19.381Z,80.07
2023-04-13T23:53:49.001Z,80.52
2023-04-13T23:56:17.514Z,80.20
2023-04-13T23:58:45.750Z,81.26
